KAEX

Alexandria International Airport

Alexandria, Louisiana, USA
KAEX 252320Z 2600/2624 26006KT P6SM SCT060 BKN100 FM260400 31010KT P6SM VCSH OVC025 FM260900 30008KT P6SM BKN025 FM261100 31010KT P6SM SCT050 FM261600 32010KT P6SM SKC
Issued Valid From Valid To
Apr-25 @ 23:20 UTC
(5 hours ago)
Apr-26 @ 00:00 UTC
(4 hours ago)
Apr-27 @ 00:00 UTC
(in 20 hours)
Apr-26 @ 00:00 to Apr-26 @ 04:00
KAEX 252320Z 2600/2624 26006KT P6SM SCT060 BKN100
Wind Visibility Clouds
260° at 6 knots Greater than 6 miles
  • Scattered at 6,000' AGL
  • Broken at 10,000' AGL
From Apr-26 @ 04:00 to Apr-26 @ 09:00
FM260400 31010KT P6SM VCSH OVC025
Wind Visibility Clouds
310° at 10 knots Greater than 6 miles
  • Overcast at 2,500' AGL
From Apr-26 @ 09:00 to Apr-26 @ 11:00
FM260900 30008KT P6SM BKN025
Wind Visibility Clouds
300° at 8 knots Greater than 6 miles
  • Broken at 2,500' AGL
From Apr-26 @ 11:00 to Apr-26 @ 16:00
FM261100 31010KT P6SM SCT050
Wind Visibility Clouds
310° at 10 knots Greater than 6 miles
  • Scattered at 5,000' AGL
From Apr-26 @ 16:00 to Apr-27 @ 00:00
FM261600 32010KT P6SM SKC
Wind Visibility Clouds
320° at 10 knots Greater than 6 miles
  • Clear skies
KAEX 252320Z 2600/2624 26006KT P6SM SCT060 BKN100 FM260400 31010KT P6SM VCSH OVC025 FM260900 30008KT P6SM BKN025 FM261100 31010KT P6SM SCT050 FM261600 32010KT P6SM SKC
Issued Apr-25 @ 23:20 UTC
(5 hours ago)
Valid From Apr-26 @ 00:00 UTC
(4 hours ago)
Valid To Apr-27 @ 00:00 UTC
(in 20 hours)
Apr-26 @ 00:00 - Apr-26 @ 04:00
Wind Visibility
260° at 6 knots Greater than 6 miles
Clouds
  • Scattered at 6,000' AGL
  • Broken at 10,000' AGL
From Apr-26 @ 04:00 - Apr-26 @ 09:00
Wind Visibility
310° at 10 knots Greater than 6 miles
Clouds
  • Overcast at 2,500' AGL
From Apr-26 @ 09:00 - Apr-26 @ 11:00
Wind Visibility
300° at 8 knots Greater than 6 miles
Clouds
  • Broken at 2,500' AGL
From Apr-26 @ 11:00 - Apr-26 @ 16:00
Wind Visibility
310° at 10 knots Greater than 6 miles
Clouds
  • Scattered at 5,000' AGL
From Apr-26 @ 16:00 - Apr-27 @ 00:00
Wind Visibility
320° at 10 knots Greater than 6 miles
Clouds
  • Clear skies